Tuesday, January 17, 2017, 3:52 AM EST

KIPT, Williamsport-lycoming County

Location: Montoursville, PA, United States Lat: 41.25
Local Time: 3:52 AM EST ( 8:52 GMT) Lon: -76.917
Time Zone: US/Eastern Elev: 528 ft

Show me the last for .
Show Decoded

2017-01-17 02:54 METAR KIPT 170754Z AUTO 10003KT 9SM OVC020 02/M03 A3023 RMK AO2 SLP240 T00171028
                 =
2017-01-17 02:25 METAR KIPT 170725Z AUTO 00000KT 9SM BKN022 OVC032 02/M03 A3024 RMK AO2 T00171028
                 =
2017-01-17 01:54 METAR KIPT 170654Z AUTO 08003KT 9SM OVC035 02/M03 A3024 RMK AO2 SLP245 T00221028
                 =
2017-01-17 00:54 METAR KIPT 170554Z AUTO 00000KT 9SM OVC040 02/M03 A3025 RMK AO2 SLP248 60000
                 T00171028 10022 20011 58014 =
2017-01-16 23:54 METAR KIPT 170454Z AUTO 16003KT 9SM BKN044 BKN080 OVC100 02/M03 A3027 RMK AO2
                 SLP255 T00171028 400331089 =
2017-01-16 22:54 METAR KIPT 170354Z AUTO 12003KT 8SM OVC045 02/M03 A3029 RMK AO2 RAB11E22 SLP262
                 P0000 T00171028 =
2017-01-16 21:54 METAR KIPT 170254Z 00000KT 9SM OVC055 02/M03 A3029 RMK AO2 SLP264 60000
                 T00171033 58009 =
2017-01-16 20:54 METAR KIPT 170154Z 00000KT 9SM BKN060 OVC070 02/M03 A3031 RMK AO2
                 UPB05E19RAB19E20 SLP271 P0000 T00171033 =
2017-01-16 19:54 METAR KIPT 170054Z 06003KT 9SM OVC065 02/M04 A3032 RMK AO2 SLP275 T00221039 =
2017-01-16 18:54 METAR KIPT 162354Z 00000KT 10SM SCT090 SCT100 02/M04 A3032 RMK AO2 SLP273
                 T00221044 10033 20011 58006 =
2017-01-16 17:54 METAR KIPT 162254Z 18003KT 10SM OVC100 02/M04 A3033 RMK AO2 SLP277 T00171039 =
2017-01-16 16:54 METAR KIPT 162154Z 00000KT 10SM OVC090 03/M05 A3033 RMK AO2 SLP279 T00281050 =
2017-01-16 15:54 METAR KIPT 162054Z 12003KT 10SM OVC100 03/M05 A3034 RMK AO2 SLP280 T00331050
                 55012 =
2017-01-16 14:54 METAR KIPT 161954Z 14004KT 10SM CLR 03/M05 A3033 RMK AO2 SLP278 T00281050 =
2017-01-16 13:54 METAR KIPT 161854Z 00000KT 10SM CLR 03/M05 A3035 RMK AO2 SLP283 T00331050 =
2017-01-16 12:54 METAR KIPT 161754Z VRB03KT 10SM CLR 01/M04 A3037 RMK AO2 SLP292 T00111044 10011
                 21083 58028 =
2017-01-16 11:54 METAR KIPT 161654Z 12003KT 10SM CLR M01/M06 A3041 RMK AO2 PRESFR SLP304
                 T10111056 =
2017-01-16 10:54 METAR KIPT 161554Z 00000KT 10SM CLR M03/M06 A3045 RMK AO2 SLP320 T10331061 =
2017-01-16 09:54 METAR KIPT 161454Z 00000KT 10SM CLR M06/M08 A3046 RMK AO2 SLP322 T10561078 51004
                 =
2017-01-16 08:54 METAR KIPT 161354Z 00000KT 10SM SCT005 M07/M09 A3046 RMK AO2 SLP321 T10671094 =
2017-01-16 07:54 METAR KIPT 161254Z 00000KT 10SM OVC005 M08/M10 A3045 RMK AO2 SLP320 T10781100 =
2017-01-16 06:54 METAR KIPT 161154Z 00000KT 10SM BKN007 M08/M11 A3044 RMK AO2 SLP318 I6000
                 T10831106 11056 21089 53005 =
2017-01-16 06:45 METAR KIPT 161145Z 00000KT 10SM SCT006 M08/M11 A3044 RMK AO2 T10831106 =
2017-01-16 05:54 METAR KIPT 161054Z AUTO 00000KT 10SM CLR M08/M11 A3044 RMK AO2 SLP315 I1000
                 T10831111 =
2017-01-16 04:54 METAR KIPT 160954Z AUTO 00000KT 10SM CLR M07/M10 A3043 RMK AO2 SLP312 I1000
                 T10721100 =
2017-01-16 03:54 METAR KIPT 160854Z AUTO 33003KT 10SM CLR M07/M09 A3043 RMK AO2 SLP311 I1000
                 I3000 T10721094 50001 =

Support USWX by starting your Amazon purchase here.